Time,TemperatureF,DewpointF,PressureIn,WindDirection,WindDirectionDegrees,WindSpeedMPH,WindSpeedGustMPH,Humidity,HourlyPrecipIn,Conditions,Clouds,dailyrainin,SoftwareType,DateUTC
2013-01-21 00:04:00,51.0,-99.9,30.06,West,268,5.0,5.0,-999,-99.99,,,-99.99,,2013-01-21 05:04:00,
2013-01-21 00:13:00,51.0,-99.9,30.06,West,269,5.0,6.0,-999,-99.99,,,-99.99,,2013-01-21 05:13:00,
2013-01-21 00:23:00,51.0,-99.9,30.06,West,275,5.0,6.0,-999,-99.99,,,-99.99,,2013-01-21 05:23:00,
2013-01-21 00:34:00,52.0,-99.9,30.05,West,279,6.0,6.0,-999,-99.99,,,-99.99,,2013-01-21 05:34:00,
2013-01-21 00:43:00,52.0,-99.9,30.05,WNW,290,7.0,7.0,-999,-99.99,,,-99.99,,2013-01-21 05:43:00,
2013-01-21 00:53:00,52.0,-99.9,30.05,WNW,290,7.0,7.0,-999,-99.99,,,-99.99,,2013-01-21 05:53:00,
2013-01-21 01:03:00,51.0,-99.9,30.05,WNW,283,6.0,6.0,-999,-99.99,,,-99.99,,2013-01-21 06:03:00,
2013-01-21 01:13:00,52.0,-99.9,30.04,WNW,283,6.0,7.0,-999,-99.99,,,-99.99,,2013-01-21 06:13:00,
2013-01-21 01:23:00,52.0,-99.9,30.04,WNW,288,6.0,6.0,-999,-99.99,,,-99.99,,2013-01-21 06:23:00,
2013-01-21 01:33:00,52.0,-99.9,30.04,WNW,284,6.0,6.0,-999,-99.99,,,-99.99,,2013-01-21 06:33:00,
2013-01-21 01:43:00,52.0,-99.9,30.04,WNW,289,6.0,7.0,-999,-99.99,,,-99.99,,2013-01-21 06:43:00,
2013-01-21 01:53:00,52.0,-99.9,30.04,WNW,302,6.0,6.0,-999,-99.99,,,-99.99,,2013-01-21 06:53:00,
2013-01-21 02:03:00,49.0,-99.9,30.05,NNW,335,10.0,13.0,-999,-99.99,,,-99.99,,2013-01-21 07:03:00,
2013-01-21 02:13:00,48.0,-99.9,30.04,NNW,329,6.0,7.0,-999,-99.99,,,-99.99,,2013-01-21 07:13:00,
2013-01-21 02:23:00,48.0,-99.9,30.04,NW,326,7.0,8.0,-999,-99.99,,,-99.99,,2013-01-21 07:23:00,
2013-01-21 02:33:00,48.0,-99.9,30.04,NNW,340,9.0,11.0,-999,-99.99,,,-99.99,,2013-01-21 07:33:00,
2013-01-21 02:43:00,47.0,-99.9,30.04,NNW,338,8.0,10.0,-999,-99.99,,,-99.99,,2013-01-21 07:43:00,
2013-01-21 02:53:00,48.0,-99.9,30.04,NNW,345,8.0,10.0,-999,-99.99,,,-99.99,,2013-01-21 07:53:00,
2013-01-21 03:03:00,47.0,-99.9,30.04,North,359,5.0,7.0,-999,-99.99,,,-99.99,,2013-01-21 08:03:00,
2013-01-21 03:14:00,47.0,-99.9,30.04,NNW,339,8.0,9.0,-999,-99.99,,,-99.99,,2013-01-21 08:14:00,
2013-01-21 03:23:00,47.0,-99.9,30.04,NNW,348,6.0,7.0,-999,-99.99,,,-99.99,,2013-01-21 08:23:00,
2013-01-21 03:33:00,47.0,-99.9,30.04,North,355,6.0,8.0,-999,-99.99,,,-99.99,,2013-01-21 08:33:00,
2013-01-21 03:43:00,47.0,-99.9,30.04,North,359,6.0,7.0,-999,-99.99,,,-99.99,,2013-01-21 08:43:00,
2013-01-21 03:53:00,47.0,-99.9,30.04,North,353,6.0,7.0,-999,-99.99,,,-99.99,,2013-01-21 08:53:00,
2013-01-21 04:03:00,47.0,-99.9,30.04,North,8,4.0,5.0,-999,-99.99,,,-99.99,,2013-01-21 09:03:00,
2013-01-21 04:13:00,47.0,-99.9,30.04,North,4,4.0,6.0,-999,-99.99,,,-99.99,,2013-01-21 09:13:00,
2013-01-21 04:23:00,46.0,-99.9,30.04,North,3,6.0,7.0,-999,-99.99,,,-99.99,,2013-01-21 09:23:00,
2013-01-21 04:33:00,46.0,-99.9,30.04,North,8,4.0,5.0,-999,-99.99,,,-99.99,,2013-01-21 09:33:00,
2013-01-21 04:43:00,47.0,-99.9,30.04,NNE,13,6.0,8.0,-999,-99.99,,,-99.99,,2013-01-21 09:43:00,
2013-01-21 04:53:00,47.0,-99.9,30.04,NNE,18,6.0,8.0,-999,-99.99,,,-99.99,,2013-01-21 09:53:00,
2013-01-21 05:03:00,47.0,-99.9,30.04,NNE,15,7.0,9.0,-999,-99.99,,,-99.99,,2013-01-21 10:03:00,
2013-01-21 05:12:00,47.0,-99.9,30.04,NNE,20,8.0,9.0,-999,-99.99,,,-99.99,,2013-01-21 10:12:00,
2013-01-21 05:23:00,47.0,-99.9,30.03,NNE,20,8.0,10.0,-999,-99.99,,,-99.99,,2013-01-21 10:23:00,
2013-01-21 05:33:00,47.0,-99.9,30.03,NNE,15,8.0,10.0,-999,-99.99,,,-99.99,,2013-01-21 10:33:00,
2013-01-21 05:43:00,47.0,-99.9,30.03,NNE,13,8.0,9.0,-999,-99.99,,,-99.99,,2013-01-21 10:43:00,
2013-01-21 05:53:00,47.0,-99.9,30.03,NNE,20,7.0,8.0,-999,-99.99,,,-99.99,,2013-01-21 10:53:00,
2013-01-21 06:03:00,47.0,-99.9,30.03,NNE,19,8.0,9.0,-999,-99.99,,,-99.99,,2013-01-21 11:03:00,
2013-01-21 06:13:00,47.0,-99.9,30.03,NNE,13,7.0,9.0,-999,-99.99,,,-99.99,,2013-01-21 11:13:00,
2013-01-21 06:23:00,46.0,-99.9,30.03,NNE,16,6.0,7.0,-999,-99.99,,,-99.99,,2013-01-21 11:23:00,
2013-01-21 06:33:00,46.0,-99.9,30.03,NNE,18,5.0,6.0,-999,-99.99,,,-99.99,,2013-01-21 11:33:00,
2013-01-21 06:43:00,47.0,-99.9,30.03,NNE,14,5.0,5.0,-999,-99.99,,,-99.99,,2013-01-21 11:43:00,
2013-01-21 06:53:00,47.0,-99.9,30.03,NNE,14,5.0,6.0,-999,-99.99,,,-99.99,,2013-01-21 11:53:00,
2013-01-21 07:03:00,45.0,-99.9,30.04,North,359,5.0,6.0,-999,-99.99,,,-99.99,,2013-01-21 12:03:00,
2013-01-21 07:12:00,45.0,-99.9,30.04,North,355,6.0,7.0,-999,-99.99,,,-99.99,,2013-01-21 12:12:00,
2013-01-21 07:23:00,45.0,-99.9,30.04,North,6,5.0,6.0,-999,-99.99,,,-99.99,,2013-01-21 12:23:00,
2013-01-21 07:33:00,45.0,-99.9,30.04,North,6,5.0,6.0,-999,-99.99,,,-99.99,,2013-01-21 12:33:00,
2013-01-21 07:43:00,47.0,-99.9,30.04,North,10,8.0,10.0,-999,-99.99,,,-99.99,,2013-01-21 12:43:00,
2013-01-21 07:53:00,47.0,-99.9,30.04,North,9,8.0,9.0,-999,-99.99,,,-99.99,,2013-01-21 12:53:00,
2013-01-21 08:03:00,47.0,-99.9,30.04,North,10,7.0,9.0,-999,-99.99,,,-99.99,,2013-01-21 13:03:00,
2013-01-21 08:13:00,47.0,-99.9,30.04,NNE,13,7.0,8.0,-999,-99.99,,,-99.99,,2013-01-21 13:13:00,
2013-01-21 08:23:00,48.0,-99.9,30.04,North,9,7.0,8.0,-999,-99.99,,,-99.99,,2013-01-21 13:23:00,
2013-01-21 08:33:00,48.0,-99.9,30.05,North,10,7.0,9.0,-999,-99.99,,,-99.99,,2013-01-21 13:33:00,
2013-01-21 08:43:00,48.0,-99.9,30.05,North,8,8.0,9.0,-999,-99.99,,,-99.99,,2013-01-21 13:43:00,
2013-01-21 08:54:00,48.0,-99.9,30.05,North,5,7.0,8.0,-999,-99.99,,,-99.99,,2013-01-21 13:54:00,
2013-01-21 09:04:00,49.0,-99.9,30.05,NNE,22,6.0,7.0,-999,-99.99,,,-99.99,,2013-01-21 14:04:00,
2013-01-21 09:13:00,49.0,-99.9,30.05,NNE,18,8.0,9.0,-999,-99.99,,,-99.99,,2013-01-21 14:13:00,
2013-01-21 09:23:00,49.0,-99.9,30.05,NNE,20,7.0,8.0,-999,-99.99,,,-99.99,,2013-01-21 14:23:00,
2013-01-21 09:33:00,49.0,-99.9,30.05,NNE,30,9.0,10.0,-999,-99.99,,,-99.99,,2013-01-21 14:33:00,
2013-01-21 09:43:00,50.0,-99.9,30.05,NNE,26,9.0,9.0,-999,-99.99,,,-99.99,,2013-01-21 14:43:00,
2013-01-21 09:54:00,50.0,-99.9,30.05,NNE,24,9.0,10.0,-999,-99.99,,,-99.99,,2013-01-21 14:54:00,
2013-01-21 10:03:00,50.0,-99.9,30.06,NNE,23,8.0,9.0,-999,-99.99,,,-99.99,,2013-01-21 15:03:00,
2013-01-21 10:14:00,51.0,-99.9,30.06,NNE,33,7.0,7.0,-999,-99.99,,,-99.99,,2013-01-21 15:14:00,
2013-01-21 10:23:00,51.0,-99.9,30.06,NE,38,6.0,7.0,-999,-99.99,,,-99.99,,2013-01-21 15:23:00,
2013-01-21 10:33:00,51.0,-99.9,30.06,NE,35,5.0,6.0,-999,-99.99,,,-99.99,,2013-01-21 15:33:00,
2013-01-21 10:43:00,52.0,-99.9,30.05,ENE,58,7.0,8.0,-999,-99.99,,,-99.99,,2013-01-21 15:43:00,
2013-01-21 10:53:00,53.0,-99.9,30.05,ENE,61,7.0,8.0,-999,-99.99,,,-99.99,,2013-01-21 15:53:00,
2013-01-21 11:04:00,53.0,-99.9,30.05,NE,55,7.0,7.0,-999,-99.99,,,-99.99,,2013-01-21 16:04:00,
2013-01-21 11:13:00,53.0,-99.9,30.05,NE,54,6.0,6.0,-999,-99.99,,,-99.99,,2013-01-21 16:13:00,
2013-01-21 11:24:00,53.0,-99.9,30.04,ENE,57,6.0,6.0,-999,-99.99,,,-99.99,,2013-01-21 16:24:00,
2013-01-21 11:33:00,53.0,-99.9,30.04,NE,47,6.0,6.0,-999,-99.99,,,-99.99,,2013-01-21 16:33:00,
2013-01-21 11:44:00,53.0,-99.9,30.03,NE,44,5.0,5.0,-999,-99.99,,,-99.99,,2013-01-21 16:44:00,
2013-01-21 11:53:00,53.0,-99.9,30.03,NE,46,4.0,4.0,-999,-99.99,,,-99.99,,2013-01-21 16:53:00,
2013-01-21 12:03:00,53.0,-99.9,30.02,NE,46,5.0,5.0,-999,-99.99,,,-99.99,,2013-01-21 17:03:00,
2013-01-21 12:13:00,53.0,-99.9,30.01,NE,43,3.0,4.0,-999,-99.99,,,-99.99,,2013-01-21 17:13:00,
2013-01-21 12:23:00,53.0,-99.9,30.01,NNE,32,4.0,4.0,-999,-99.99,,,-99.99,,2013-01-21 17:23:00,
2013-01-21 12:33:00,53.0,-99.9,30.00,NNE,13,4.0,4.0,-999,-99.99,,,-99.99,,2013-01-21 17:33:00,
2013-01-21 12:43:00,53.0,-99.9,29.99,NNE,29,3.0,4.0,-999,-99.99,,,-99.99,,2013-01-21 17:43:00,
2013-01-21 12:53:00,54.0,-99.9,29.98,NNE,28,2.0,2.0,-999,-99.99,,,-99.99,,2013-01-21 17:53:00,
2013-01-21 13:03:00,54.0,-99.9,29.98,NE,51,3.0,3.0,-999,-99.99,,,-99.99,,2013-01-21 18:03:00,
2013-01-21 13:12:00,55.0,-99.9,29.97,NE,52,1.0,1.0,-999,-99.99,,,-99.99,,2013-01-21 18:12:00,
2013-01-21 13:23:00,55.0,-99.9,29.97,NE,52,1.0,1.0,-999,-99.99,,,-99.99,,2013-01-21 18:23:00,
2013-01-21 13:33:00,55.0,-99.9,29.96,North,-999,-999.0,-999.0,-999,-99.99,,,-99.99,,2013-01-21 18:33:00,
2013-01-21 13:43:00,56.0,-99.9,29.96,South,175,4.0,4.0,-999,-99.99,,,-99.99,,2013-01-21 18:43:00,
2013-01-21 13:53:00,55.0,-99.9,29.95,SSE,150,4.0,4.0,-999,-99.99,,,-99.99,,2013-01-21 18:53:00,
2013-01-21 14:03:00,54.0,-99.9,29.94,SSE,153,5.0,5.0,-999,-99.99,,,-99.99,,2013-01-21 19:03:00,
2013-01-21 14:13:00,55.0,-99.9,29.93,SSE,149,5.0,6.0,-999,-99.99,,,-99.99,,2013-01-21 19:13:00,
2013-01-21 14:23:00,55.0,-99.9,29.93,SSE,151,5.0,7.0,-999,-99.99,,,-99.99,,2013-01-21 19:23:00,
2013-01-21 14:33:00,55.0,-99.9,29.92,SSE,157,9.0,11.0,-999,-99.99,,,-99.99,,2013-01-21 19:33:00,
2013-01-21 14:43:00,56.0,-99.9,29.91,SSE,166,15.0,17.0,-999,-99.99,,,-99.99,,2013-01-21 19:43:00,
2013-01-21 14:53:00,56.0,-99.9,29.91,SSE,166,15.0,16.0,-999,-99.99,,,-99.99,,2013-01-21 19:53:00,
2013-01-21 15:04:00,56.0,-99.9,29.91,South,175,17.0,18.0,-999,-99.99,,,-99.99,,2013-01-21 20:04:00,
2013-01-21 15:12:00,57.0,-99.9,29.91,South,180,16.0,18.0,-999,-99.99,,,-99.99,,2013-01-21 20:12:00,
2013-01-21 15:23:00,57.0,-99.9,29.90,South,185,16.0,17.0,-999,-99.99,,,-99.99,,2013-01-21 20:23:00,
2013-01-21 15:33:00,56.0,-99.9,29.90,South,187,15.0,17.0,-999,-99.99,,,-99.99,,2013-01-21 20:33:00,
2013-01-21 15:43:00,56.0,-99.9,29.89,South,185,16.0,18.0,-999,-99.99,,,-99.99,,2013-01-21 20:43:00,
2013-01-21 15:53:00,56.0,-99.9,29.89,South,182,17.0,20.0,-999,-99.99,,,-99.99,,2013-01-21 20:53:00,
2013-01-21 16:04:00,56.0,-99.9,29.89,South,190,17.0,20.0,-999,-99.99,,,-99.99,,2013-01-21 21:04:00,
2013-01-21 16:13:00,57.0,-99.9,29.88,South,188,18.0,20.0,-999,-99.99,,,-99.99,,2013-01-21 21:13:00,
2013-01-21 16:23:00,57.0,-99.9,29.89,SSW,210,17.0,21.0,-999,-99.99,,,-99.99,,2013-01-21 21:23:00,
2013-01-21 16:33:00,61.0,-99.9,29.89,SW,223,13.0,17.0,-999,-99.99,,,-99.99,,2013-01-21 21:33:00,
2013-01-21 16:43:00,61.0,-99.9,29.89,SW,222,13.0,15.0,-999,-99.99,,,-99.99,,2013-01-21 21:43:00,
2013-01-21 16:54:00,61.0,-99.9,29.89,SW,228,16.0,19.0,-999,-99.99,,,-99.99,,2013-01-21 21:54:00,
2013-01-21 17:04:00,60.0,-99.9,29.89,SW,223,13.0,17.0,-999,-99.99,,,-99.99,,2013-01-21 22:04:00,
2013-01-21 17:13:00,60.0,-99.9,29.89,SW,221,13.0,16.0,-999,-99.99,,,-99.99,,2013-01-21 22:13:00,
2013-01-21 17:24:00,60.0,-99.9,29.89,SW,227,11.0,13.0,-999,-99.99,,,-99.99,,2013-01-21 22:24:00,
2013-01-21 17:33:00,59.0,-99.9,29.89,SW,225,10.0,12.0,-999,-99.99,,,-99.99,,2013-01-21 22:33:00,
2013-01-21 17:43:00,59.0,-99.9,29.89,SW,219,12.0,14.0,-999,-99.99,,,-99.99,,2013-01-21 22:43:00,
2013-01-21 17:53:00,58.0,-99.9,29.88,SW,215,14.0,16.0,-999,-99.99,,,-99.99,,2013-01-21 22:53:00,
2013-01-21 18:03:00,58.0,-99.9,29.89,SW,221,12.0,15.0,-999,-99.99,,,-99.99,,2013-01-21 23:03:00,
2013-01-21 18:13:00,57.0,-99.9,29.89,SW,226,13.0,16.0,-999,-99.99,,,-99.99,,2013-01-21 23:13:00,
2013-01-21 18:23:00,57.0,-99.9,29.89,SW,228,12.0,16.0,-999,-99.99,,,-99.99,,2013-01-21 23:23:00,
2013-01-21 18:33:00,57.0,-99.9,29.89,SW,232,10.0,12.0,-999,-99.99,,,-99.99,,2013-01-21 23:33:00,
2013-01-21 18:43:00,57.0,-99.9,29.89,SW,231,10.0,13.0,-999,-99.99,,,-99.99,,2013-01-21 23:43:00,
2013-01-21 18:53:00,56.0,-99.9,29.90,WSW,240,9.0,11.0,-999,-99.99,,,-99.99,,2013-01-21 23:53:00,
2013-01-21 19:03:00,56.0,-99.9,29.90,WSW,243,10.0,13.0,-999,-99.99,,,-99.99,,2013-01-22 00:03:00,
2013-01-21 19:12:00,56.0,-99.9,29.91,WSW,243,11.0,14.0,-999,-99.99,,,-99.99,,2013-01-22 00:12:00,
2013-01-21 19:23:00,56.0,-99.9,29.91,WSW,247,10.0,13.0,-999,-99.99,,,-99.99,,2013-01-22 00:23:00,
2013-01-21 19:33:00,56.0,-99.9,29.91,WSW,247,10.0,13.0,-999,-99.99,,,-99.99,,2013-01-22 00:33:00,
2013-01-21 19:43:00,55.0,-99.9,29.91,WSW,247,9.0,13.0,-999,-99.99,,,-99.99,,2013-01-22 00:43:00,
2013-01-21 19:53:00,55.0,-99.9,29.91,WSW,248,10.0,15.0,-999,-99.99,,,-99.99,,2013-01-22 00:53:00,
2013-01-21 20:03:00,55.0,-99.9,29.91,WSW,255,8.0,11.0,-999,-99.99,,,-99.99,,2013-01-22 01:03:00,
2013-01-21 20:12:00,55.0,-99.9,29.91,WSW,250,9.0,13.0,-999,-99.99,,,-99.99,,2013-01-22 01:12:00,
2013-01-21 20:23:00,55.0,-99.9,29.91,WSW,250,8.0,11.0,-999,-99.99,,,-99.99,,2013-01-22 01:23:00,
2013-01-21 20:33:00,55.0,-99.9,29.92,WSW,252,8.0,11.0,-999,-99.99,,,-99.99,,2013-01-22 01:33:00,
2013-01-21 20:43:00,55.0,-99.9,29.91,WSW,244,9.0,11.0,-999,-99.99,,,-99.99,,2013-01-22 01:43:00,
2013-01-21 20:53:00,55.0,-99.9,29.91,WSW,246,7.0,9.0,-999,-99.99,,,-99.99,,2013-01-22 01:53:00,
2013-01-21 21:03:00,55.0,-99.9,29.92,WSW,245,6.0,9.0,-999,-99.99,,,-99.99,,2013-01-22 02:03:00,
2013-01-21 21:12:00,54.0,-99.9,29.92,WSW,246,7.0,9.0,-999,-99.99,,,-99.99,,2013-01-22 02:12:00,
2013-01-21 21:23:00,54.0,-99.9,29.93,WSW,243,8.0,9.0,-999,-99.99,,,-99.99,,2013-01-22 02:23:00,
2013-01-21 21:33:00,54.0,-99.9,29.93,WSW,246,8.0,9.0,-999,-99.99,,,-99.99,,2013-01-22 02:33:00,
2013-01-21 21:43:00,54.0,-99.9,29.93,WSW,243,8.0,9.0,-999,-99.99,,,-99.99,,2013-01-22 02:43:00,
2013-01-21 21:53:00,54.0,-99.9,29.93,WSW,244,8.0,10.0,-999,-99.99,,,-99.99,,2013-01-22 02:53:00,
2013-01-21 22:03:00,53.0,-99.9,29.93,WSW,247,8.0,9.0,-999,-99.99,,,-99.99,,2013-01-22 03:03:00,
2013-01-21 22:12:00,53.0,-99.9,29.93,WSW,254,6.0,8.0,-999,-99.99,,,-99.99,,2013-01-22 03:12:00,
2013-01-21 22:23:00,53.0,-99.9,29.93,WSW,250,8.0,9.0,-999,-99.99,,,-99.99,,2013-01-22 03:23:00,
2013-01-21 22:33:00,53.0,-99.9,29.93,WSW,255,7.0,9.0,-999,-99.99,,,-99.99,,2013-01-22 03:33:00,
2013-01-21 22:43:00,54.0,-99.9,29.93,West,262,8.0,12.0,-999,-99.99,,,-99.99,,2013-01-22 03:43:00,
2013-01-21 22:53:00,54.0,-99.9,29.93,WSW,256,9.0,15.0,-999,-99.99,,,-99.99,,2013-01-22 03:53:00,
2013-01-21 23:03:00,55.0,-99.9,29.93,WSW,251,10.0,13.0,-999,-99.99,,,-99.99,,2013-01-22 04:03:00,
2013-01-21 23:12:00,55.0,-99.9,29.93,WSW,247,11.0,14.0,-999,-99.99,,,-99.99,,2013-01-22 04:12:00,
2013-01-21 23:22:00,55.0,-99.9,29.93,WSW,249,9.0,11.0,-999,-99.99,,,-99.99,,2013-01-22 04:22:00,
2013-01-21 23:33:00,54.0,-99.9,29.93,West,262,9.0,11.0,-999,-99.99,,,-99.99,,2013-01-22 04:33:00,
2013-01-21 23:43:00,55.0,-99.9,29.93,WSW,251,12.0,19.0,-999,-99.99,,,-99.99,,2013-01-22 04:43:00,
2013-01-21 23:53:00,55.0,-99.9,29.93,WSW,250,13.0,16.0,-999,-99.99,,,-99.99,,2013-01-22 04:53:00,